sensor_id;sensor_type;location;lat;lon;timestamp;P1;durP1;ratioP1;P2;durP2;ratioP2
12556;SDS011;6344;49.932;8.308;2024-02-26T00:00:40;3.93;;;3.37;;
12556;SDS011;6344;49.932;8.308;2024-02-26T00:03:07;3.23;;;3.03;;
12556;SDS011;6344;49.932;8.308;2024-02-26T00:05:34;3.97;;;2.80;;
12556;SDS011;6344;49.932;8.308;2024-02-26T00:08:03;3.30;;;3.00;;
12556;SDS011;6344;49.932;8.308;2024-02-26T00:10:31;3.03;;;2.83;;
12556;SDS011;6344;49.932;8.308;2024-02-26T00:12:58;3.60;;;2.87;;
12556;SDS011;6344;49.932;8.308;2024-02-26T00:15:25;3.27;;;2.97;;
12556;SDS011;6344;49.932;8.308;2024-02-26T00:17:53;3.80;;;3.50;;
12556;SDS011;6344;49.932;8.308;2024-02-26T00:20:20;3.10;;;2.90;;
12556;SDS011;6344;49.932;8.308;2024-02-26T00:22:47;3.10;;;2.70;;
12556;SDS011;6344;49.932;8.308;2024-02-26T00:25:14;3.17;;;2.97;;
12556;SDS011;6344;49.932;8.308;2024-02-26T00:27:42;2.83;;;2.63;;
12556;SDS011;6344;49.932;8.308;2024-02-26T00:30:10;2.93;;;2.47;;
12556;SDS011;6344;49.932;8.308;2024-02-26T00:32:37;3.20;;;2.93;;
12556;SDS011;6344;49.932;8.308;2024-02-26T00:35:05;2.43;;;2.23;;
12556;SDS011;6344;49.932;8.308;2024-02-26T00:37:32;3.23;;;3.03;;
12556;SDS011;6344;49.932;8.308;2024-02-26T00:39:59;3.13;;;2.93;;
12556;SDS011;6344;49.932;8.308;2024-02-26T00:42:26;2.80;;;2.60;;
12556;SDS011;6344;49.932;8.308;2024-02-26T00:44:55;4.10;;;2.80;;
12556;SDS011;6344;49.932;8.308;2024-02-26T00:47:22;2.80;;;2.60;;
12556;SDS011;6344;49.932;8.308;2024-02-26T00:49:49;3.00;;;2.70;;
12556;SDS011;6344;49.932;8.308;2024-02-26T00:52:16;3.47;;;3.17;;
12556;SDS011;6344;49.932;8.308;2024-02-26T00:54:43;2.70;;;2.50;;
12556;SDS011;6344;49.932;8.308;2024-02-26T00:57:10;2.87;;;2.67;;
12556;SDS011;6344;49.932;8.308;2024-02-26T00:59:37;2.77;;;2.57;;
12556;SDS011;6344;49.932;8.308;2024-02-26T01:02:05;3.17;;;2.97;;
12556;SDS011;6344;49.932;8.308;2024-02-26T01:04:32;3.30;;;3.00;;
12556;SDS011;6344;49.932;8.308;2024-02-26T01:07:00;3.30;;;3.00;;
12556;SDS011;6344;49.932;8.308;2024-02-26T01:09:27;3.20;;;2.90;;
12556;SDS011;6344;49.932;8.308;2024-02-26T01:11:54;2.70;;;2.50;;
12556;SDS011;6344;49.932;8.308;2024-02-26T01:14:21;4.93;;;2.63;;
12556;SDS011;6344;49.932;8.308;2024-02-26T01:16:48;3.27;;;2.77;;
12556;SDS011;6344;49.932;8.308;2024-02-26T01:19:16;3.47;;;3.20;;
12556;SDS011;6344;49.932;8.308;2024-02-26T01:21:44;2.97;;;2.70;;
12556;SDS011;6344;49.932;8.308;2024-02-26T01:24:11;2.87;;;2.67;;
12556;SDS011;6344;49.932;8.308;2024-02-26T01:26:38;5.03;;;2.73;;
12556;SDS011;6344;49.932;8.308;2024-02-26T01:29:05;3.47;;;2.87;;
12556;SDS011;6344;49.932;8.308;2024-02-26T01:31:33;3.10;;;2.80;;
12556;SDS011;6344;49.932;8.308;2024-02-26T01:34:00;3.10;;;2.80;;
12556;SDS011;6344;49.932;8.308;2024-02-26T01:36:28;2.87;;;2.67;;
12556;SDS011;6344;49.932;8.308;2024-02-26T01:38:55;3.23;;;2.63;;
12556;SDS011;6344;49.932;8.308;2024-02-26T01:41:22;2.93;;;2.63;;
12556;SDS011;6344;49.932;8.308;2024-02-26T01:43:50;3.07;;;2.77;;
12556;SDS011;6344;49.932;8.308;2024-02-26T01:46:17;2.67;;;2.47;;
12556;SDS011;6344;49.932;8.308;2024-02-26T01:48:44;3.20;;;2.90;;
12556;SDS011;6344;49.932;8.308;2024-02-26T01:51:14;3.00;;;2.80;;
12556;SDS011;6344;49.932;8.308;2024-02-26T01:53:43;3.23;;;2.90;;
12556;SDS011;6344;49.932;8.308;2024-02-26T01:56:11;3.10;;;2.90;;
12556;SDS011;6344;49.932;8.308;2024-02-26T01:58:38;2.73;;;2.53;;
12556;SDS011;6344;49.932;8.308;2024-02-26T02:01:05;2.90;;;2.70;;
12556;SDS011;6344;49.932;8.308;2024-02-26T02:03:32;2.80;;;2.60;;
12556;SDS011;6344;49.932;8.308;2024-02-26T02:06:00;3.20;;;2.90;;
12556;SDS011;6344;49.932;8.308;2024-02-26T02:08:27;2.63;;;2.50;;
12556;SDS011;6344;49.932;8.308;2024-02-26T02:10:56;3.23;;;2.90;;
12556;SDS011;6344;49.932;8.308;2024-02-26T02:13:23;2.87;;;2.60;;
12556;SDS011;6344;49.932;8.308;2024-02-26T02:15:50;2.50;;;2.30;;
12556;SDS011;6344;49.932;8.308;2024-02-26T02:18:17;3.20;;;2.90;;
12556;SDS011;6344;49.932;8.308;2024-02-26T02:20:45;2.90;;;2.70;;
12556;SDS011;6344;49.932;8.308;2024-02-26T02:23:12;3.03;;;2.80;;
12556;SDS011;6344;49.932;8.308;2024-02-26T02:25:40;3.23;;;2.87;;
12556;SDS011;6344;49.932;8.308;2024-02-26T02:28:07;5.87;;;3.17;;
12556;SDS011;6344;49.932;8.308;2024-02-26T02:30:34;2.40;;;2.30;;
12556;SDS011;6344;49.932;8.308;2024-02-26T02:33:01;3.53;;;2.97;;
12556;SDS011;6344;49.932;8.308;2024-02-26T02:35:28;3.00;;;2.80;;
12556;SDS011;6344;49.932;8.308;2024-02-26T02:37:57;3.60;;;2.70;;
12556;SDS011;6344;49.932;8.308;2024-02-26T02:40:24;3.37;;;3.07;;
12556;SDS011;6344;49.932;8.308;2024-02-26T02:42:51;3.00;;;2.70;;
12556;SDS011;6344;49.932;8.308;2024-02-26T02:45:18;3.90;;;3.20;;
12556;SDS011;6344;49.932;8.308;2024-02-26T02:47:45;3.20;;;3.00;;
12556;SDS011;6344;49.932;8.308;2024-02-26T02:50:11;3.30;;;3.10;;
12556;SDS011;6344;49.932;8.308;2024-02-26T02:52:38;2.80;;;2.40;;
12556;SDS011;6344;49.932;8.308;2024-02-26T02:55:07;3.60;;;3.40;;
12556;SDS011;6344;49.932;8.308;2024-02-26T02:57:34;3.00;;;2.80;;
12556;SDS011;6344;49.932;8.308;2024-02-26T03:00:06;3.57;;;3.27;;
12556;SDS011;6344;49.932;8.308;2024-02-26T03:02:33;3.23;;;2.93;;
12556;SDS011;6344;49.932;8.308;2024-02-26T03:05:00;3.30;;;3.00;;
12556;SDS011;6344;49.932;8.308;2024-02-26T03:07:28;3.20;;;2.87;;
12556;SDS011;6344;49.932;8.308;2024-02-26T03:09:55;3.40;;;3.10;;
12556;SDS011;6344;49.932;8.308;2024-02-26T03:12:23;3.20;;;2.90;;
12556;SDS011;6344;49.932;8.308;2024-02-26T03:14:51;4.40;;;3.23;;
12556;SDS011;6344;49.932;8.308;2024-02-26T03:17:19;2.87;;;2.63;;
12556;SDS011;6344;49.932;8.308;2024-02-26T03:19:46;3.00;;;2.80;;
12556;SDS011;6344;49.932;8.308;2024-02-26T03:22:18;3.50;;;3.20;;
12556;SDS011;6344;49.932;8.308;2024-02-26T03:24:45;4.47;;;3.47;;
12556;SDS011;6344;49.932;8.308;2024-02-26T03:27:12;3.90;;;3.60;;
12556;SDS011;6344;49.932;8.308;2024-02-26T03:29:40;3.27;;;2.97;;
12556;SDS011;6344;49.932;8.308;2024-02-26T03:32:07;4.70;;;3.47;;
12556;SDS011;6344;49.932;8.308;2024-02-26T03:34:34;4.10;;;3.80;;
12556;SDS011;6344;49.932;8.308;2024-02-26T03:37:04;4.57;;;4.07;;
12556;SDS011;6344;49.932;8.308;2024-02-26T03:39:31;3.97;;;3.67;;
12556;SDS011;6344;49.932;8.308;2024-02-26T03:41:58;3.27;;;3.07;;
12556;SDS011;6344;49.932;8.308;2024-02-26T03:44:25;3.60;;;3.30;;
12556;SDS011;6344;49.932;8.308;2024-02-26T03:46:54;4.60;;;4.13;;
12556;SDS011;6344;49.932;8.308;2024-02-26T03:49:21;4.07;;;3.77;;
12556;SDS011;6344;49.932;8.308;2024-02-26T03:51:48;4.67;;;4.30;;
12556;SDS011;6344;49.932;8.308;2024-02-26T03:54:15;4.00;;;3.70;;
12556;SDS011;6344;49.932;8.308;2024-02-26T03:56:42;4.80;;;4.47;;
12556;SDS011;6344;49.932;8.308;2024-02-26T03:59:09;4.03;;;3.83;;
12556;SDS011;6344;49.932;8.308;2024-02-26T04:01:35;4.80;;;4.40;;
12556;SDS011;6344;49.932;8.308;2024-02-26T04:04:04;4.53;;;4.13;;
12556;SDS011;6344;49.932;8.308;2024-02-26T04:06:31;3.87;;;3.57;;
12556;SDS011;6344;49.932;8.308;2024-02-26T04:08:58;4.50;;;4.10;;
12556;SDS011;6344;49.932;8.308;2024-02-26T04:11:25;3.97;;;3.77;;
12556;SDS011;6344;49.932;8.308;2024-02-26T04:13:53;4.70;;;4.10;;
12556;SDS011;6344;49.932;8.308;2024-02-26T04:16:20;4.30;;;3.90;;
12556;SDS011;6344;49.932;8.308;2024-02-26T04:18:47;3.73;;;3.43;;
12556;SDS011;6344;49.932;8.308;2024-02-26T04:21:16;5.03;;;4.50;;
12556;SDS011;6344;49.932;8.308;2024-02-26T04:23:43;4.47;;;4.13;;
12556;SDS011;6344;49.932;8.308;2024-02-26T04:26:10;4.60;;;4.20;;
12556;SDS011;6344;49.932;8.308;2024-02-26T04:28:37;6.13;;;4.83;;
12556;SDS011;6344;49.932;8.308;2024-02-26T04:31:04;4.77;;;4.37;;
12556;SDS011;6344;49.932;8.308;2024-02-26T04:33:33;4.20;;;3.90;;
12556;SDS011;6344;49.932;8.308;2024-02-26T04:36:00;5.30;;;4.90;;
12556;SDS011;6344;49.932;8.308;2024-02-26T04:38:29;5.30;;;4.90;;
12556;SDS011;6344;49.932;8.308;2024-02-26T04:40:56;5.43;;;4.93;;
12556;SDS011;6344;49.932;8.308;2024-02-26T04:43:23;4.80;;;4.50;;
12556;SDS011;6344;49.932;8.308;2024-02-26T04:45:50;4.97;;;4.57;;
12556;SDS011;6344;49.932;8.308;2024-02-26T04:48:17;4.40;;;4.10;;
12556;SDS011;6344;49.932;8.308;2024-02-26T04:50:44;5.40;;;4.90;;
12556;SDS011;6344;49.932;8.308;2024-02-26T04:53:12;5.07;;;4.57;;
12556;SDS011;6344;49.932;8.308;2024-02-26T04:55:40;5.90;;;5.40;;
12556;SDS011;6344;49.932;8.308;2024-02-26T04:58:07;4.93;;;4.50;;
12556;SDS011;6344;49.932;8.308;2024-02-26T05:00:35;5.70;;;5.30;;
12556;SDS011;6344;49.932;8.308;2024-02-26T05:03:01;5.70;;;5.27;;
12556;SDS011;6344;49.932;8.308;2024-02-26T05:05:28;5.33;;;4.83;;
12556;SDS011;6344;49.932;8.308;2024-02-26T05:07:55;5.37;;;4.50;;
12556;SDS011;6344;49.932;8.308;2024-02-26T05:10:22;4.50;;;4.10;;
12556;SDS011;6344;49.932;8.308;2024-02-26T05:12:51;6.10;;;5.50;;
12556;SDS011;6344;49.932;8.308;2024-02-26T05:15:18;5.50;;;5.00;;
12556;SDS011;6344;49.932;8.308;2024-02-26T05:17:45;5.37;;;4.93;;
12556;SDS011;6344;49.932;8.308;2024-02-26T05:20:13;6.57;;;5.07;;
12556;SDS011;6344;49.932;8.308;2024-02-26T05:22:40;4.90;;;4.60;;
12556;SDS011;6344;49.932;8.308;2024-02-26T05:25:07;5.17;;;4.87;;
12556;SDS011;6344;49.932;8.308;2024-02-26T05:27:34;5.60;;;5.10;;
12556;SDS011;6344;49.932;8.308;2024-02-26T05:30:03;5.37;;;4.87;;
12556;SDS011;6344;49.932;8.308;2024-02-26T05:32:30;5.90;;;5.30;;
12556;SDS011;6344;49.932;8.308;2024-02-26T05:34:57;6.00;;;5.50;;
12556;SDS011;6344;49.932;8.308;2024-02-26T05:37:24;5.93;;;5.50;;
12556;SDS011;6344;49.932;8.308;2024-02-26T05:39:51;6.80;;;5.50;;
12556;SDS011;6344;49.932;8.308;2024-02-26T05:42:18;6.40;;;5.80;;
12556;SDS011;6344;49.932;8.308;2024-02-26T05:44:45;6.77;;;6.17;;
12556;SDS011;6344;49.932;8.308;2024-02-26T05:47:14;7.13;;;5.77;;
12556;SDS011;6344;49.932;8.308;2024-02-26T05:49:42;5.70;;;5.20;;
12556;SDS011;6344;49.932;8.308;2024-02-26T05:52:09;5.90;;;5.40;;
12556;SDS011;6344;49.932;8.308;2024-02-26T05:54:36;6.90;;;6.23;;
12556;SDS011;6344;49.932;8.308;2024-02-26T05:57:03;6.80;;;6.20;;
12556;SDS011;6344;49.932;8.308;2024-02-26T05:59:30;7.13;;;6.00;;
12556;SDS011;6344;49.932;8.308;2024-02-26T06:01:57;5.80;;;5.40;;
12556;SDS011;6344;49.932;8.308;2024-02-26T06:04:25;8.30;;;6.00;;
12556;SDS011;6344;49.932;8.308;2024-02-26T06:06:53;6.20;;;5.70;;
12556;SDS011;6344;49.932;8.308;2024-02-26T06:09:20;6.40;;;5.90;;
12556;SDS011;6344;49.932;8.308;2024-02-26T06:11:47;6.83;;;5.80;;
12556;SDS011;6344;49.932;8.308;2024-02-26T06:14:14;7.37;;;5.30;;
12556;SDS011;6344;49.932;8.308;2024-02-26T06:16:43;7.13;;;6.53;;
12556;SDS011;6344;49.932;8.308;2024-02-26T06:19:10;7.43;;;6.30;;
12556;SDS011;6344;49.932;8.308;2024-02-26T06:21:38;6.07;;;5.57;;
12556;SDS011;6344;49.932;8.308;2024-02-26T06:24:05;7.90;;;6.40;;
12556;SDS011;6344;49.932;8.308;2024-02-26T06:26:32;6.63;;;5.87;;
12556;SDS011;6344;49.932;8.308;2024-02-26T06:28:59;7.03;;;6.33;;
12556;SDS011;6344;49.932;8.308;2024-02-26T06:31:26;5.83;;;5.33;;
12556;SDS011;6344;49.932;8.308;2024-02-26T06:33:54;6.07;;;5.60;;
12556;SDS011;6344;49.932;8.308;2024-02-26T06:36:21;6.50;;;5.73;;
12556;SDS011;6344;49.932;8.308;2024-02-26T06:38:50;7.60;;;6.90;;
12556;SDS011;6344;49.932;8.308;2024-02-26T06:41:19;6.83;;;6.23;;
12556;SDS011;6344;49.932;8.308;2024-02-26T06:43:46;7.00;;;6.37;;
12556;SDS011;6344;49.932;8.308;2024-02-26T06:46:13;8.40;;;6.37;;
12556;SDS011;6344;49.932;8.308;2024-02-26T06:48:40;7.10;;;6.40;;
12556;SDS011;6344;49.932;8.308;2024-02-26T06:51:07;7.17;;;6.33;;
12556;SDS011;6344;49.932;8.308;2024-02-26T06:53:34;7.63;;;6.93;;
12556;SDS011;6344;49.932;8.308;2024-02-26T06:56:03;10.53;;;7.47;;
12556;SDS011;6344;49.932;8.308;2024-02-26T06:58:30;8.23;;;7.33;;
12556;SDS011;6344;49.932;8.308;2024-02-26T07:00:57;7.60;;;6.90;;
12556;SDS011;6344;49.932;8.308;2024-02-26T07:03:24;7.17;;;6.57;;
12556;SDS011;6344;49.932;8.308;2024-02-26T07:05:51;8.77;;;8.07;;
12556;SDS011;6344;49.932;8.308;2024-02-26T07:08:19;8.67;;;7.80;;
12556;SDS011;6344;49.932;8.308;2024-02-26T07:10:46;8.10;;;7.30;;
12556;SDS011;6344;49.932;8.308;2024-02-26T07:13:14;8.80;;;8.00;;
12556;SDS011;6344;49.932;8.308;2024-02-26T07:15:41;8.57;;;7.40;;
12556;SDS011;6344;49.932;8.308;2024-02-26T07:18:08;8.23;;;7.53;;
12556;SDS011;6344;49.932;8.308;2024-02-26T07:20:35;8.80;;;7.93;;
12556;SDS011;6344;49.932;8.308;2024-02-26T07:23:03;11.93;;;7.00;;
12556;SDS011;6344;49.932;8.308;2024-02-26T07:25:31;11.07;;;8.60;;
12556;SDS011;6344;49.932;8.308;2024-02-26T07:27:58;7.87;;;7.27;;
12556;SDS011;6344;49.932;8.308;2024-02-26T07:30:27;8.80;;;7.90;;
12556;SDS011;6344;49.932;8.308;2024-02-26T07:32:54;9.40;;;8.50;;
12556;SDS011;6344;49.932;8.308;2024-02-26T07:35:21;8.80;;;7.90;;
12556;SDS011;6344;49.932;8.308;2024-02-26T07:37:48;9.00;;;8.17;;
12556;SDS011;6344;49.932;8.308;2024-02-26T07:40:15;9.40;;;8.60;;
12556;SDS011;6344;49.932;8.308;2024-02-26T07:42:43;9.70;;;8.10;;
12556;SDS011;6344;49.932;8.308;2024-02-26T07:45:10;9.53;;;8.10;;
12556;SDS011;6344;49.932;8.308;2024-02-26T07:47:38;10.70;;;8.30;;
12556;SDS011;6344;49.932;8.308;2024-02-26T07:50:07;7.67;;;6.87;;
12556;SDS011;6344;49.932;8.308;2024-02-26T07:52:34;12.00;;;8.27;;
12556;SDS011;6344;49.932;8.308;2024-02-26T07:55:01;10.20;;;8.40;;
12556;SDS011;6344;49.932;8.308;2024-02-26T07:57:28;10.00;;;9.00;;
12556;SDS011;6344;49.932;8.308;2024-02-26T07:59:55;8.10;;;7.10;;
12556;SDS011;6344;49.932;8.308;2024-02-26T08:02:22;9.40;;;8.50;;
12556;SDS011;6344;49.932;8.308;2024-02-26T08:04:51;11.73;;;8.60;;
12556;SDS011;6344;49.932;8.308;2024-02-26T08:07:18;7.17;;;4.77;;
12556;SDS011;6344;49.932;8.308;2024-02-26T08:09:46;7.37;;;6.33;;
12556;SDS011;6344;49.932;8.308;2024-02-26T08:12:13;9.27;;;7.40;;
12556;SDS011;6344;49.932;8.308;2024-02-26T08:14:40;11.47;;;8.70;;
12556;SDS011;6344;49.932;8.308;2024-02-26T08:17:07;10.47;;;9.47;;
12556;SDS011;6344;49.932;8.308;2024-02-26T08:19:34;10.23;;;9.17;;
12556;SDS011;6344;49.932;8.308;2024-02-26T08:22:03;9.77;;;8.40;;
12556;SDS011;6344;49.932;8.308;2024-02-26T08:24:30;9.83;;;8.93;;
12556;SDS011;6344;49.932;8.308;2024-02-26T08:26:57;8.33;;;7.47;;
12556;SDS011;6344;49.932;8.308;2024-02-26T08:29:24;11.20;;;8.80;;
12556;SDS011;6344;49.932;8.308;2024-02-26T08:31:51;9.30;;;6.33;;
12556;SDS011;6344;49.932;8.308;2024-02-26T08:34:18;5.80;;;5.30;;
12556;SDS011;6344;49.932;8.308;2024-02-26T08:36:45;10.67;;;7.20;;
12556;SDS011;6344;49.932;8.308;2024-02-26T08:39:15;10.43;;;8.97;;
12556;SDS011;6344;49.932;8.308;2024-02-26T08:41:42;10.13;;;8.77;;
12556;SDS011;6344;49.932;8.308;2024-02-26T08:44:09;10.60;;;9.60;;
12556;SDS011;6344;49.932;8.308;2024-02-26T08:46:36;10.00;;;9.00;;
12556;SDS011;6344;49.932;8.308;2024-02-26T08:49:04;12.20;;;9.17;;
12556;SDS011;6344;49.932;8.308;2024-02-26T08:51:31;11.60;;;8.50;;
12556;SDS011;6344;49.932;8.308;2024-02-26T08:53:58;12.53;;;8.80;;
12556;SDS011;6344;49.932;8.308;2024-02-26T08:56:26;9.03;;;8.23;;
12556;SDS011;6344;49.932;8.308;2024-02-26T08:58:53;8.50;;;7.63;;
12556;SDS011;6344;49.932;8.308;2024-02-26T09:01:22;11.10;;;8.60;;
12556;SDS011;6344;49.932;8.308;2024-02-26T09:03:49;14.83;;;13.27;;
12556;SDS011;6344;49.932;8.308;2024-02-26T09:06:16;20.30;;;16.43;;
12556;SDS011;6344;49.932;8.308;2024-02-26T09:08:43;10.73;;;9.57;;
12556;SDS011;6344;49.932;8.308;2024-02-26T09:11:10;9.73;;;8.70;;
12556;SDS011;6344;49.932;8.308;2024-02-26T09:13:39;10.87;;;8.90;;
12556;SDS011;6344;49.932;8.308;2024-02-26T09:16:07;9.50;;;8.60;;
12556;SDS011;6344;49.932;8.308;2024-02-26T09:18:34;11.53;;;10.53;;
12556;SDS011;6344;49.932;8.308;2024-02-26T09:21:03;8.30;;;7.23;;
12556;SDS011;6344;49.932;8.308;2024-02-26T09:23:31;5.87;;;5.47;;
12556;SDS011;6344;49.932;8.308;2024-02-26T09:26:00;11.10;;;8.50;;
12556;SDS011;6344;49.932;8.308;2024-02-26T09:28:27;10.03;;;7.93;;
12556;SDS011;6344;49.932;8.308;2024-02-26T09:30:58;10.77;;;9.70;;
12556;SDS011;6344;49.932;8.308;2024-02-26T09:33:25;10.50;;;9.27;;
12556;SDS011;6344;49.932;8.308;2024-02-26T09:35:52;13.00;;;9.40;;
12556;SDS011;6344;49.932;8.308;2024-02-26T09:38:19;11.83;;;9.53;;
12556;SDS011;6344;49.932;8.308;2024-02-26T09:40:46;10.60;;;9.50;;
12556;SDS011;6344;49.932;8.308;2024-02-26T09:43:13;9.70;;;8.77;;
12556;SDS011;6344;49.932;8.308;2024-02-26T09:45:41;10.10;;;7.47;;
12556;SDS011;6344;49.932;8.308;2024-02-26T09:48:10;10.53;;;9.47;;
12556;SDS011;6344;49.932;8.308;2024-02-26T09:50:39;12.67;;;11.03;;
12556;SDS011;6344;49.932;8.308;2024-02-26T09:53:07;12.37;;;7.90;;
12556;SDS011;6344;49.932;8.308;2024-02-26T09:55:36;9.37;;;8.13;;
12556;SDS011;6344;49.932;8.308;2024-02-26T09:58:03;9.17;;;7.70;;
12556;SDS011;6344;49.932;8.308;2024-02-26T10:00:32;9.30;;;8.40;;
12556;SDS011;6344;49.932;8.308;2024-02-26T10:03:01;10.53;;;9.43;;
12556;SDS011;6344;49.932;8.308;2024-02-26T10:05:31;7.90;;;7.10;;
12556;SDS011;6344;49.932;8.308;2024-02-26T10:07:59;10.43;;;9.43;;
12556;SDS011;6344;49.932;8.308;2024-02-26T10:10:26;10.43;;;9.43;;
12556;SDS011;6344;49.932;8.308;2024-02-26T10:12:55;12.67;;;11.13;;
12556;SDS011;6344;49.932;8.308;2024-02-26T10:15:22;14.33;;;10.10;;
12556;SDS011;6344;49.932;8.308;2024-02-26T10:17:49;9.23;;;8.33;;
12556;SDS011;6344;49.932;8.308;2024-02-26T10:20:16;6.57;;;5.97;;
12556;SDS011;6344;49.932;8.308;2024-02-26T10:22:45;6.23;;;5.33;;
12556;SDS011;6344;49.932;8.308;2024-02-26T10:25:12;9.07;;;8.20;;
12556;SDS011;6344;49.932;8.308;2024-02-26T10:27:40;9.07;;;8.17;;
12556;SDS011;6344;49.932;8.308;2024-02-26T10:30:15;8.10;;;7.30;;
12556;SDS011;6344;49.932;8.308;2024-02-26T10:32:42;8.87;;;7.97;;
12556;SDS011;6344;49.932;8.308;2024-02-26T10:35:10;9.27;;;5.90;;
12556;SDS011;6344;49.932;8.308;2024-02-26T10:37:37;8.70;;;7.80;;
12556;SDS011;6344;49.932;8.308;2024-02-26T10:40:06;8.93;;;7.87;;
12556;SDS011;6344;49.932;8.308;2024-02-26T10:42:36;9.77;;;8.80;;
12556;SDS011;6344;49.932;8.308;2024-02-26T10:45:04;11.00;;;9.90;;
12556;SDS011;6344;49.932;8.308;2024-02-26T10:47:31;9.33;;;7.20;;
12556;SDS011;6344;49.932;8.308;2024-02-26T10:49:59;9.10;;;8.20;;
12556;SDS011;6344;49.932;8.308;2024-02-26T10:52:26;9.60;;;8.60;;
12556;SDS011;6344;49.932;8.308;2024-02-26T10:54:54;9.43;;;8.07;;
12556;SDS011;6344;49.932;8.308;2024-02-26T10:57:25;8.83;;;7.87;;
12556;SDS011;6344;49.932;8.308;2024-02-26T10:59:53;9.00;;;7.20;;
12556;SDS011;6344;49.932;8.308;2024-02-26T11:02:20;9.90;;;8.90;;
12556;SDS011;6344;49.932;8.308;2024-02-26T11:04:47;6.40;;;5.80;;
12556;SDS011;6344;49.932;8.308;2024-02-26T11:07:15;6.70;;;6.20;;
12556;SDS011;6344;49.932;8.308;2024-02-26T11:09:42;10.40;;;8.27;;
12556;SDS011;6344;49.932;8.308;2024-02-26T11:12:16;7.40;;;6.70;;
12556;SDS011;6344;49.932;8.308;2024-02-26T11:14:46;8.90;;;8.10;;
12556;SDS011;6344;49.932;8.308;2024-02-26T11:17:13;9.93;;;9.03;;
12556;SDS011;6344;49.932;8.308;2024-02-26T11:19:42;10.20;;;9.20;;
12556;SDS011;6344;49.932;8.308;2024-02-26T11:22:09;9.90;;;8.87;;
12556;SDS011;6344;49.932;8.308;2024-02-26T11:24:36;8.20;;;7.40;;
12556;SDS011;6344;49.932;8.308;2024-02-26T11:27:06;7.63;;;6.80;;
12556;SDS011;6344;49.932;8.308;2024-02-26T11:29:35;7.37;;;5.93;;
12556;SDS011;6344;49.932;8.308;2024-02-26T11:32:05;6.17;;;5.57;;
12556;SDS011;6344;49.932;8.308;2024-02-26T11:34:32;5.67;;;5.17;;
12556;SDS011;6344;49.932;8.308;2024-02-26T11:37:08;9.60;;;8.73;;
12556;SDS011;6344;49.932;8.308;2024-02-26T11:39:35;8.80;;;7.77;;
12556;SDS011;6344;49.932;8.308;2024-02-26T11:42:04;10.00;;;8.97;;
12556;SDS011;6344;49.932;8.308;2024-02-26T11:44:32;9.00;;;7.33;;
12556;SDS011;6344;49.932;8.308;2024-02-26T11:46:59;9.43;;;8.53;;
12556;SDS011;6344;49.932;8.308;2024-02-26T11:49:30;5.90;;;5.10;;
12556;SDS011;6344;49.932;8.308;2024-02-26T11:51:58;9.57;;;8.20;;
12556;SDS011;6344;49.932;8.308;2024-02-26T11:54:44;11.20;;;9.07;;
12556;SDS011;6344;49.932;8.308;2024-02-26T11:57:21;8.60;;;7.87;;
12556;SDS011;6344;49.932;8.308;2024-02-26T11:59:48;9.33;;;8.50;;
12556;SDS011;6344;49.932;8.308;2024-02-26T12:04:59;9.87;;;8.97;;
12556;SDS011;6344;49.932;8.308;2024-02-26T12:07:26;9.13;;;8.17;;
12556;SDS011;6344;49.932;8.308;2024-02-26T12:09:56;9.40;;;8.60;;
12556;SDS011;6344;49.932;8.308;2024-02-26T12:12:40;10.37;;;9.47;;
12556;SDS011;6344;49.932;8.308;2024-02-26T12:15:08;9.83;;;8.87;;
12556;SDS011;6344;49.932;8.308;2024-02-26T12:17:36;9.27;;;8.37;;
12556;SDS011;6344;49.932;8.308;2024-02-26T12:20:11;9.03;;;8.13;;
12556;SDS011;6344;49.932;8.308;2024-02-26T12:22:39;8.73;;;7.60;;
12556;SDS011;6344;49.932;8.308;2024-02-26T12:25:08;8.73;;;7.87;;
12556;SDS011;6344;49.932;8.308;2024-02-26T12:27:35;9.30;;;8.33;;
12556;SDS011;6344;49.932;8.308;2024-02-26T12:30:02;10.27;;;9.33;;
12556;SDS011;6344;49.932;8.308;2024-02-26T12:32:31;9.57;;;8.67;;
12556;SDS011;6344;49.932;8.308;2024-02-26T12:34:58;9.33;;;8.47;;
12556;SDS011;6344;49.932;8.308;2024-02-26T12:37:27;7.63;;;6.93;;
12556;SDS011;6344;49.932;8.308;2024-02-26T12:39:54;9.00;;;8.10;;
12556;SDS011;6344;49.932;8.308;2024-02-26T12:42:21;8.80;;;8.00;;
12556;SDS011;6344;49.932;8.308;2024-02-26T12:44:49;8.17;;;7.37;;
12556;SDS011;6344;49.932;8.308;2024-02-26T12:47:16;9.83;;;8.83;;
12556;SDS011;6344;49.932;8.308;2024-02-26T12:49:45;9.00;;;8.13;;
12556;SDS011;6344;49.932;8.308;2024-02-26T12:52:13;10.43;;;9.57;;
12556;SDS011;6344;49.932;8.308;2024-02-26T12:54:41;10.30;;;9.37;;
12556;SDS011;6344;49.932;8.308;2024-02-26T12:57:09;10.53;;;9.43;;
12556;SDS011;6344;49.932;8.308;2024-02-26T12:59:36;8.20;;;7.60;;
12556;SDS011;6344;49.932;8.308;2024-02-26T13:02:04;6.87;;;6.27;;
12556;SDS011;6344;49.932;8.308;2024-02-26T13:04:31;9.97;;;9.00;;
12556;SDS011;6344;49.932;8.308;2024-02-26T13:06:58;9.53;;;8.57;;
12556;SDS011;6344;49.932;8.308;2024-02-26T13:09:28;9.90;;;9.00;;
12556;SDS011;6344;49.932;8.308;2024-02-26T13:11:56;8.10;;;7.40;;
12556;SDS011;6344;49.932;8.308;2024-02-26T13:14:24;9.30;;;8.40;;
12556;SDS011;6344;49.932;8.308;2024-02-26T13:16:54;8.90;;;8.03;;
12556;SDS011;6344;49.932;8.308;2024-02-26T13:19:21;8.00;;;7.30;;
12556;SDS011;6344;49.932;8.308;2024-02-26T13:21:49;9.67;;;8.67;;
12556;SDS011;6344;49.932;8.308;2024-02-26T13:24:16;9.10;;;8.30;;
12556;SDS011;6344;49.932;8.308;2024-02-26T13:26:44;7.20;;;6.60;;
12556;SDS011;6344;49.932;8.308;2024-02-26T13:29:17;7.43;;;6.83;;
12556;SDS011;6344;49.932;8.308;2024-02-26T13:31:45;8.10;;;7.33;;
12556;SDS011;6344;49.932;8.308;2024-02-26T13:34:22;9.37;;;8.57;;
12556;SDS011;6344;49.932;8.308;2024-02-26T13:36:50;6.70;;;5.90;;
12556;SDS011;6344;49.932;8.308;2024-02-26T13:39:21;8.00;;;7.30;;
12556;SDS011;6344;49.932;8.308;2024-02-26T13:41:49;7.53;;;6.80;;
12556;SDS011;6344;49.932;8.308;2024-02-26T13:44:18;7.80;;;7.10;;
12556;SDS011;6344;49.932;8.308;2024-02-26T13:46:46;8.03;;;7.20;;
12556;SDS011;6344;49.932;8.308;2024-02-26T13:49:14;8.90;;;8.10;;
12556;SDS011;6344;49.932;8.308;2024-02-26T13:51:41;9.33;;;8.43;;
12556;SDS011;6344;49.932;8.308;2024-02-26T13:54:08;5.97;;;5.50;;
12556;SDS011;6344;49.932;8.308;2024-02-26T13:56:35;8.30;;;7.50;;
12556;SDS011;6344;49.932;8.308;2024-02-26T13:59:02;8.93;;;8.17;;
12556;SDS011;6344;49.932;8.308;2024-02-26T14:01:31;5.83;;;5.27;;
12556;SDS011;6344;49.932;8.308;2024-02-26T14:03:58;7.00;;;6.33;;
12556;SDS011;6344;49.932;8.308;2024-02-26T14:06:26;6.60;;;6.00;;
12556;SDS011;6344;49.932;8.308;2024-02-26T14:08:55;8.80;;;8.00;;
12556;SDS011;6344;49.932;8.308;2024-02-26T14:11:22;9.10;;;8.10;;
12556;SDS011;6344;49.932;8.308;2024-02-26T14:13:50;8.30;;;7.50;;
12556;SDS011;6344;49.932;8.308;2024-02-26T14:16:17;9.00;;;8.30;;
12556;SDS011;6344;49.932;8.308;2024-02-26T14:18:46;6.07;;;5.57;;
12556;SDS011;6344;49.932;8.308;2024-02-26T14:21:13;9.37;;;8.57;;
12556;SDS011;6344;49.932;8.308;2024-02-26T14:23:40;9.87;;;8.87;;
12556;SDS011;6344;49.932;8.308;2024-02-26T14:26:09;9.10;;;8.40;;
12556;SDS011;6344;49.932;8.308;2024-02-26T14:28:37;7.77;;;7.07;;
12556;SDS011;6344;49.932;8.308;2024-02-26T14:31:05;6.60;;;6.00;;
12556;SDS011;6344;49.932;8.308;2024-02-26T14:33:36;9.93;;;8.93;;
12556;SDS011;6344;49.932;8.308;2024-02-26T14:36:05;9.60;;;8.73;;
12556;SDS011;6344;49.932;8.308;2024-02-26T14:38:32;8.60;;;7.90;;
12556;SDS011;6344;49.932;8.308;2024-02-26T14:40:59;8.37;;;7.53;;
12556;SDS011;6344;49.932;8.308;2024-02-26T14:43:27;7.37;;;6.67;;
12556;SDS011;6344;49.932;8.308;2024-02-26T14:45:54;8.60;;;7.80;;
12556;SDS011;6344;49.932;8.308;2024-02-26T14:48:21;8.87;;;8.07;;
12556;SDS011;6344;49.932;8.308;2024-02-26T14:50:49;7.10;;;6.60;;
12556;SDS011;6344;49.932;8.308;2024-02-26T14:53:18;5.53;;;5.03;;
12556;SDS011;6344;49.932;8.308;2024-02-26T14:55:45;5.20;;;4.70;;
12556;SDS011;6344;49.932;8.308;2024-02-26T14:58:12;7.00;;;6.40;;
12556;SDS011;6344;49.932;8.308;2024-02-26T15:00:39;8.63;;;7.03;;
12556;SDS011;6344;49.932;8.308;2024-02-26T15:03:06;6.83;;;6.03;;
12556;SDS011;6344;49.932;8.308;2024-02-26T15:05:33;7.93;;;7.13;;